Time;durP1;ratioP1;P1;durP2;ratioP2;P2;SDS_P1;SDS_P2;PMS_P1;PMS_P2;Temp;Humidity;BMP_temperature;BMP_pressure;BME280_temperature;BME280_humidity;BME280_pressure;Samples;Min_cycle;Max_cycle;Signal;HPM_P1;HPM_P2
2023/04/18 00:00:55;;;;;;;1999.90;999.90;;;7.90;99.90;;;;;;5075984;28;20052;-72
2023/04/18 00:03:21;;;;;;;1999.90;999.90;;;7.90;99.90;;;;;;5075938;28;20029;-72
2023/04/18 00:05:47;;;;;;;1999.90;999.90;;;7.80;99.90;;;;;;5075561;28;20148;-73
2023/04/18 00:08:13;;;;;;;1999.90;999.90;;;7.80;99.90;;;;;;5079360;28;20031;-71
2023/04/18 00:10:38;;;;;;;1999.90;999.90;;;7.70;99.90;;;;;;5076550;28;20036;-72
2023/04/18 00:13:04;;;;;;;1999.90;999.90;;;7.70;99.90;;;;;;5075745;28;20041;-72
2023/04/18 00:15:30;;;;;;;1999.90;999.90;;;7.50;99.90;;;;;;5075645;28;20048;-72
2023/04/18 00:17:55;;;;;;;1999.90;999.90;;;7.40;99.90;;;;;;5075912;28;20029;-72
2023/04/18 00:20:24;;;;;;;1999.90;999.90;;;7.30;99.90;;;;;;5075826;28;20515;-72
2023/04/18 00:22:52;;;;;;;1999.90;999.90;;;7.20;99.90;;;;;;5075595;28;20029;-72
2023/04/18 00:25:17;;;;;;;1999.90;999.90;;;7.10;99.90;;;;;;5075387;28;20041;-72
2023/04/18 00:27:43;;;;;;;1999.90;999.90;;;7.00;99.90;;;;;;5075724;28;20033;-72
2023/04/18 00:30:09;;;;;;;1999.90;999.90;;;6.90;99.90;;;;;;5075020;28;20044;-72
2023/04/18 00:32:35;;;;;;;1999.90;999.90;;;6.70;99.90;;;;;;5075586;28;20033;-72
2023/04/18 00:35:01;;;;;;;1999.90;999.90;;;6.70;99.90;;;;;;5075401;28;20505;-72
2023/04/18 00:37:26;;;;;;;1999.90;999.90;;;6.80;99.90;;;;;;5074131;28;20406;-72
2023/04/18 00:39:52;;;;;;;1999.90;999.90;;;6.80;99.90;;;;;;5075611;28;20063;-72
2023/04/18 00:42:23;;;;;;;1999.90;999.90;;;6.90;99.90;;;;;;5075582;28;20025;-72
2023/04/18 00:44:48;;;;;;;1999.90;999.90;;;7.00;99.90;;;;;;5075245;28;20107;-72
2023/04/18 00:47:16;;;;;;;1999.90;999.90;;;7.10;99.90;;;;;;5057269;28;20056;-72
2023/04/18 00:49:42;;;;;;;1999.90;999.90;;;7.10;99.90;;;;;;5075351;28;20037;-73
2023/04/18 00:52:08;;;;;;;1999.90;999.90;;;7.10;99.90;;;;;;5075443;28;20056;-72
2023/04/18 00:54:34;;;;;;;1999.90;999.90;;;7.10;99.90;;;;;;5075208;28;20045;-72
2023/04/18 00:57:00;;;;;;;1999.90;999.90;;;7.10;99.90;;;;;;5075319;28;20041;-73
2023/04/18 00:59:26;;;;;;;1999.90;999.90;;;7.10;99.90;;;;;;5074701;28;20144;-73
2023/04/18 01:01:52;;;;;;;1999.90;999.90;;;7.10;99.90;;;;;;5075490;28;20124;-72
2023/04/18 01:04:17;;;;;;;1999.90;999.90;;;7.10;99.90;;;;;;5075043;28;20407;-72
2023/04/18 01:06:44;;;;;;;1999.90;999.90;;;7.10;99.90;;;;;;5075310;28;20486;-73
2023/04/18 01:09:10;;;;;;;1999.90;999.90;;;7.20;99.90;;;;;;5074975;28;20032;-72
2023/04/18 01:11:35;;;;;;;1999.90;999.90;;;7.20;99.90;;;;;;5075185;28;20467;-72
2023/04/18 01:14:05;;;;;;;1999.90;999.90;;;7.20;99.90;;;;;;5074701;28;20049;-72
2023/04/18 01:16:32;;;;;;;1999.90;999.90;;;7.20;99.90;;;;;;5074897;28;20122;-72
2023/04/18 01:18:59;;;;;;;1999.90;999.90;;;7.20;99.90;;;;;;5074956;28;20033;-73
2023/04/18 01:21:25;;;;;;;1999.90;999.90;;;7.20;99.90;;;;;;5074481;28;20044;-72
2023/04/18 01:23:52;;;;;;;1999.90;999.90;;;7.20;99.90;;;;;;5056701;28;20051;-74
2023/04/18 01:26:17;;;;;;;1999.90;999.90;;;7.20;99.90;;;;;;5074779;28;20045;-72
2023/04/18 01:28:43;;;;;;;1999.90;999.90;;;7.20;99.90;;;;;;5074623;28;20029;-72
2023/04/18 01:31:09;;;;;;;1999.90;999.90;;;7.20;99.90;;;;;;5074609;28;20040;-72
2023/04/18 01:33:34;;;;;;;1999.90;999.90;;;7.20;99.90;;;;;;5074796;28;20033;-72
2023/04/18 01:36:00;;;;;;;1999.90;999.90;;;7.10;99.90;;;;;;5074601;28;20033;-72
2023/04/18 01:38:25;;;;;;;1999.90;999.90;;;7.10;99.90;;;;;;5074521;28;20040;-72
2023/04/18 01:40:51;;;;;;;1999.90;999.90;;;7.10;99.90;;;;;;5074310;28;20036;-72
2023/04/18 01:43:16;;;;;;;1999.90;999.90;;;7.10;99.90;;;;;;5074736;28;20479;-72
2023/04/18 01:45:42;;;;;;;1999.90;999.90;;;7.10;99.90;;;;;;5074407;28;20128;-72
2023/04/18 01:48:07;;;;;;;1999.90;999.90;;;7.10;99.90;;;;;;5073956;28;20033;-72
2023/04/18 01:50:33;;;;;;;1999.90;999.90;;;7.10;99.90;;;;;;5056216;28;20078;-72
2023/04/18 01:52:58;;;;;;;1999.90;999.90;;;7.10;99.90;;;;;;5074609;28;20033;-72
2023/04/18 01:55:24;;;;;;;1999.90;999.90;;;7.00;99.90;;;;;;5074347;28;20033;-72
2023/04/18 01:57:49;;;;;;;1999.90;999.90;;;7.00;99.90;;;;;;5073548;28;20040;-72
2023/04/18 02:00:15;;;;;;;1999.90;999.90;;;7.00;99.90;;;;;;5074030;28;20510;-72
2023/04/18 02:02:41;;;;;;;1999.90;999.90;;;6.90;99.90;;;;;;5074281;28;20040;-72
2023/04/18 02:05:07;;;;;;;1999.90;999.90;;;6.90;99.90;;;;;;5074045;28;20429;-72
2023/04/18 02:07:33;;;;;;;1999.90;999.90;;;6.80;99.90;;;;;;5074442;28;20041;-73
2023/04/18 02:09:59;;;;;;;1999.90;999.90;;;6.70;99.90;;;;;;5074212;28;20056;-72
2023/04/18 02:12:24;;;;;;;1999.90;999.90;;;6.60;99.90;;;;;;5074292;28;20025;-72
2023/04/18 02:14:53;;;;;;;1999.90;999.90;;;6.50;99.90;;;;;;5076111;28;20493;-71
2023/04/18 02:17:22;;;;;;;1999.90;999.90;;;6.40;99.90;;;;;;5075686;28;20083;-72
2023/04/18 02:19:49;;;;;;;1999.90;999.90;;;6.30;99.90;;;;;;5073664;28;20067;-74
2023/04/18 02:22:15;;;;;;;1999.90;999.90;;;6.20;99.90;;;;;;5073864;28;20029;-72
2023/04/18 02:24:41;;;;;;;1999.90;999.90;;;6.10;99.90;;;;;;5055624;28;20441;-72
2023/04/18 02:27:06;;;;;;;1999.90;999.90;;;6.10;99.90;;;;;;5055817;28;20032;-73
2023/04/18 02:29:32;;;;;;;1999.90;999.90;;;6.00;99.90;;;;;;5073999;28;20129;-71
2023/04/18 02:31:57;;;;;;;1999.90;999.90;;;5.90;99.90;;;;;;5074140;28;20467;-72
2023/04/18 02:34:23;;;;;;;1999.90;999.90;;;5.90;99.90;;;;;;5074416;28;20044;-72
2023/04/18 02:36:48;;;;;;;1999.90;999.90;;;5.90;99.90;;;;;;5074332;28;20075;-72
2023/04/18 02:39:14;;;;;;;1999.90;999.90;;;5.90;99.90;;;;;;5073550;28;20037;-71
2023/04/18 02:41:39;;;;;;;1999.90;999.90;;;5.90;99.90;;;;;;5073872;28;20037;-72
2023/04/18 02:44:07;;;;;;;1999.90;999.90;;;5.90;99.90;;;;;;5073407;28;20044;-72
2023/04/18 02:46:33;;;;;;;1999.90;999.90;;;5.90;99.90;;;;;;5073699;28;20065;-71
2023/04/18 02:48:59;;;;;;;1999.90;999.90;;;5.90;99.90;;;;;;5073974;28;20113;-72
2023/04/18 02:51:25;;;;;;;1999.90;999.90;;;5.80;99.90;;;;;;5073935;28;20048;-72
2023/04/18 02:53:53;;;;;;;1999.90;999.90;;;5.80;99.90;;;;;;5073627;28;20036;-73
2023/04/18 02:56:20;;;;;;;1999.90;999.90;;;5.70;99.90;;;;;;5073624;28;20490;-72
2023/04/18 02:58:46;;;;;;;1999.90;999.90;;;5.70;99.90;;;;;;5073783;28;20033;-72
2023/04/18 03:01:12;;;;;;;1999.90;999.90;;;5.70;99.90;;;;;;5075419;28;20048;-72
2023/04/18 03:03:37;;;;;;;1999.90;999.90;;;5.60;99.90;;;;;;5076796;28;20056;-71
2023/04/18 03:06:03;;;;;;;1999.90;999.90;;;5.50;99.90;;;;;;5076794;28;20045;-72
2023/04/18 03:08:29;;;;;;;1999.90;999.90;;;5.50;99.90;;;;;;5077065;28;20033;-72
2023/04/18 03:10:54;;;;;;;1999.90;999.90;;;5.50;99.90;;;;;;5076620;28;20048;-72
2023/04/18 03:13:20;;;;;;;1999.90;999.90;;;5.50;99.90;;;;;;5076879;28;20095;-72
2023/04/18 03:15:46;;;;;;;1999.90;999.90;;;5.40;99.90;;;;;;5076431;28;20041;-73
2023/04/18 03:18:11;;;;;;;1999.90;999.90;;;5.50;99.90;;;;;;5076576;28;20067;-72
2023/04/18 03:20:37;;;;;;;1999.90;999.90;;;5.40;99.90;;;;;;5076558;28;20082;-72
2023/04/18 03:23:03;;;;;;;1999.90;999.90;;;5.40;99.90;;;;;;5076945;28;20160;-72
2023/04/18 03:25:28;;;;;;;1999.90;999.90;;;5.30;99.90;;;;;;5076423;28;20102;-71
2023/04/18 03:27:54;;;;;;;1999.90;999.90;;;5.20;99.90;;;;;;5076732;28;20449;-72
2023/04/18 03:30:20;;;;;;;1999.90;999.90;;;5.20;99.90;;;;;;5076516;28;20041;-72
2023/04/18 03:32:47;;;;;;;1999.90;999.90;;;5.20;99.90;;;;;;5076627;28;20057;-72
2023/04/18 03:35:13;;;;;;;1999.90;999.90;;;5.00;99.90;;;;;;5076347;28;20036;-73
2023/04/18 03:37:38;;;;;;;1999.90;999.90;;;5.00;99.90;;;;;;5076375;28;20049;-72
2023/04/18 03:40:05;;;;;;;1999.90;999.90;;;5.00;99.90;;;;;;5076185;28;20040;-71
2023/04/18 03:42:30;;;;;;;1999.90;999.90;;;4.90;99.90;;;;;;5076418;28;20123;-71
2023/04/18 03:44:56;;;;;;;1999.90;999.90;;;4.90;99.90;;;;;;5075769;28;20068;-72
2023/04/18 03:47:21;;;;;;;1999.90;999.90;;;4.80;99.90;;;;;;5076580;28;20392;-72
2023/04/18 03:49:47;;;;;;;1999.90;999.90;;;4.80;99.90;;;;;;5076460;28;20040;-72
2023/04/18 03:52:12;;;;;;;1999.90;999.90;;;4.80;99.90;;;;;;5076494;28;20448;-72
2023/04/18 03:54:38;;;;;;;1999.90;999.90;;;4.90;99.90;;;;;;5076107;28;20041;-72
2023/04/18 03:57:03;;;;;;;1999.90;999.90;;;4.90;99.90;;;;;;5076431;28;20095;-72
2023/04/18 03:59:29;;;;;;;1999.90;999.90;;;5.00;99.90;;;;;;5075600;28;20037;-71
2023/04/18 04:01:54;;;;;;;1999.90;999.90;;;5.10;99.90;;;;;;5076464;28;20479;-71
2023/04/18 04:04:20;;;;;;;1999.90;999.90;;;5.10;99.90;;;;;;5092521;22;20041;-74
2023/04/18 04:06:46;;;;;;;1999.90;999.90;;;5.30;99.90;;;;;;5114479;28;20070;-74
2023/04/18 04:09:11;;;;;;;1999.90;999.90;;;5.30;99.90;;;;;;5116685;28;20032;-74
2023/04/18 04:11:37;;;;;;;1999.90;999.90;;;5.40;99.90;;;;;;5116656;27;20042;-74
2023/04/18 04:14:03;;;;;;;1999.90;999.90;;;5.50;99.90;;;;;;5116751;28;20028;-75
2023/04/18 04:16:28;;;;;;;1999.90;999.90;;;5.60;99.90;;;;;;5116610;28;20097;-75
2023/04/18 04:18:54;;;;;;;1999.90;999.90;;;5.70;99.90;;;;;;5116553;28;20485;-75
2023/04/18 04:21:20;;;;;;;1999.90;999.90;;;5.70;99.90;;;;;;5100894;28;20032;-74
2023/04/18 04:23:45;;;;;;;1999.90;999.90;;;5.80;99.90;;;;;;5096115;28;20028;-74
2023/04/18 04:26:13;;;;;;;1999.90;999.90;;;5.90;99.90;;;;;;5115028;28;20036;-75
2023/04/18 04:28:40;;;;;;;1999.90;999.90;;;5.90;99.90;;;;;;5103456;28;20036;-75
2023/04/18 04:31:07;;;;;;;1999.90;999.90;;;6.00;99.90;;;;;;5089861;28;20099;-74
2023/04/18 04:33:32;;;;;;;1999.90;999.90;;;6.10;99.90;;;;;;5110730;28;20115;-74
2023/04/18 04:36:00;;;;;;;1999.90;999.90;;;6.10;99.90;;;;;;5116097;28;20107;-74
2023/04/18 04:38:26;;;;;;;1999.90;999.90;;;6.10;99.90;;;;;;5101163;28;20060;-74
2023/04/18 04:40:51;;;;;;;1999.90;999.90;;;6.10;99.90;;;;;;5095844;28;20792;-75
2023/04/18 04:43:19;;;;;;;1999.90;999.90;;;6.10;99.90;;;;;;5109085;28;20028;-74
2023/04/18 04:45:48;;;;;;;1999.90;999.90;;;6.10;99.90;;;;;;5113448;28;20036;-74
2023/04/18 04:48:14;;;;;;;1999.90;999.90;;;6.20;99.90;;;;;;5116413;28;20028;-74
2023/04/18 04:50:40;;;;;;;1999.90;999.90;;;6.20;99.90;;;;;;5097600;28;20202;-74
2023/04/18 04:53:10;;;;;;;1999.90;999.90;;;6.20;99.90;;;;;;5116318;28;20077;-74
2023/04/18 04:55:37;;;;;;;1999.90;999.90;;;6.30;99.90;;;;;;5113556;28;20035;-74
2023/04/18 04:58:02;;;;;;;1999.90;999.90;;;6.30;99.90;;;;;;5084351;28;20040;-75
2023/04/18 05:00:28;;;;;;;1999.90;999.90;;;6.40;99.90;;;;;;5109190;28;20039;-74
2023/04/18 05:02:56;;;;;;;1999.90;999.90;;;6.50;99.90;;;;;;5095704;28;20024;-75
2023/04/18 05:05:21;;;;;;;1999.90;999.90;;;6.50;99.90;;;;;;5094495;28;20044;-75
2023/04/18 05:07:47;;;;;;;1999.90;999.90;;;6.60;99.90;;;;;;5100671;28;20055;-74
2023/04/18 05:10:13;;;;;;;1999.90;999.90;;;6.70;99.90;;;;;;5095504;28;20045;-75
2023/04/18 05:12:38;;;;;;;1999.90;999.90;;;6.80;99.90;;;;;;5106726;28;20082;-75
2023/04/18 05:15:04;;;;;;;1999.90;999.90;;;6.80;99.90;;;;;;5096355;28;20516;-75
2023/04/18 05:17:30;;;;;;;1999.90;999.90;;;6.80;99.90;;;;;;5077511;28;20036;-75
2023/04/18 05:19:55;;;;;;;1999.90;999.90;;;6.80;99.90;;;;;;5093157;28;20041;-75
2023/04/18 05:22:21;;;;;;;1999.90;999.90;;;6.80;99.90;;;;;;5094713;28;20437;-75
2023/04/18 05:24:46;;;;;;;1999.90;999.90;;;6.80;99.90;;;;;;5094645;28;20037;-74
2023/04/18 05:27:13;;;;;;;1999.90;999.90;;;6.90;99.90;;;;;;5093817;28;20064;-75
2023/04/18 05:29:39;;;;;;;1999.90;999.90;;;7.00;99.90;;;;;;5093073;28;20043;-75
2023/04/18 05:32:05;;;;;;;1999.90;999.90;;;7.00;99.90;;;;;;5095086;28;20063;-75
2023/04/18 05:34:31;;;;;;;1999.90;999.90;;;7.00;99.90;;;;;;5094561;28;20106;-76
2023/04/18 05:36:57;;;;;;;1999.90;999.90;;;7.20;99.90;;;;;;5094998;28;20032;-73
2023/04/18 05:39:23;;;;;;;1999.90;999.90;;;7.30;99.90;;;;;;5093863;28;20039;-73
2023/04/18 05:41:48;;;;;;;1999.90;999.90;;;7.30;99.90;;;;;;5094877;28;20024;-73
2023/04/18 05:44:14;;;;;;;1999.90;999.90;;;7.30;99.90;;;;;;5094430;28;20083;-75
2023/04/18 05:46:41;;;;;;;1999.90;999.90;;;7.30;99.90;;;;;;5095076;28;20043;-74
2023/04/18 05:49:06;;;;;;;1999.90;999.90;;;7.30;99.90;;;;;;5093202;28;20033;-75
2023/04/18 05:51:32;;;;;;;1999.90;999.90;;;7.40;99.90;;;;;;5094676;28;20076;-75
2023/04/18 05:53:57;;;;;;;1999.90;999.90;;;7.50;99.90;;;;;;5094853;28;20394;-74
2023/04/18 05:56:23;;;;;;;1999.90;999.90;;;7.50;99.90;;;;;;5094716;28;20485;-78
2023/04/18 05:58:50;;;;;;;1999.90;999.90;;;7.60;99.90;;;;;;5093188;28;20059;-74
2023/04/18 06:01:20;;;;;;;1999.90;999.90;;;7.70;99.90;;;;;;5094969;28;20029;-75
2023/04/18 06:03:45;;;;;;;1999.90;999.90;;;7.80;99.90;;;;;;5094661;28;20525;-74
2023/04/18 06:06:11;;;;;;;1999.90;999.90;;;7.90;99.90;;;;;;5094247;28;20142;-74
2023/04/18 06:08:38;;;;;;;1999.90;999.90;;;8.00;99.90;;;;;;5093228;28;20397;-75
2023/04/18 06:11:04;;;;;;;1999.90;999.90;;;8.00;99.90;;;;;;5094795;28;20062;-75
2023/04/18 06:13:30;;;;;;;1999.90;999.90;;;8.00;99.90;;;;;;5094858;28;20025;-74
2023/04/18 06:15:55;;;;;;;1999.90;999.90;;;7.90;99.90;;;;;;5094055;28;20067;-71
2023/04/18 06:18:21;;;;;;;1999.90;999.90;;;7.90;99.90;;;;;;5094628;28;20391;-74
2023/04/18 06:20:46;;;;;;;1999.90;999.90;;;8.00;99.90;;;;;;5094252;28;20091;-73
2023/04/18 06:23:12;;;;;;;1999.90;999.90;;;8.00;99.90;;;;;;5094431;28;20091;-73
2023/04/18 06:25:40;;;;;;;1999.90;999.90;;;8.10;99.90;;;;;;5094098;28;20090;-73
2023/04/18 06:28:05;;;;;;;1999.90;999.90;;;8.20;99.90;;;;;;5094360;28;20067;-73
2023/04/18 06:30:31;;;;;;;1999.90;999.90;;;8.30;99.90;;;;;;5092294;28;20048;-73
2023/04/18 06:32:57;;;;;;;1999.90;999.90;;;8.40;99.90;;;;;;5092861;28;20123;-73
2023/04/18 06:35:22;;;;;;;1999.90;999.90;;;8.50;99.90;;;;;;5096355;28;20036;-73
2023/04/18 06:37:48;;;;;;;1999.90;999.90;;;8.50;99.90;;;;;;5097819;28;20028;-73
2023/04/18 06:40:13;;;;;;;1999.90;999.90;;;8.50;99.90;;;;;;5096335;28;20045;-73
2023/04/18 06:42:41;;;;;;;1999.90;999.90;;;8.40;99.90;;;;;;5097713;28;20119;-73
2023/04/18 06:45:09;;;;;;;1999.90;999.90;;;8.50;99.90;;;;;;5097332;28;20151;-73
2023/04/18 06:47:34;;;;;;;1999.90;999.90;;;8.50;99.90;;;;;;5097432;28;20027;-73
2023/04/18 06:50:00;;;;;;;1999.90;999.90;;;8.60;99.90;;;;;;5097595;28;20078;-73
2023/04/18 06:52:26;;;;;;;1999.90;999.90;;;8.40;99.90;;;;;;5098338;28;20028;-74
2023/04/18 06:54:51;;;;;;;1999.90;999.90;;;8.40;99.90;;;;;;5097141;28;20036;-73
2023/04/18 06:57:17;;;;;;;1999.90;999.90;;;8.30;99.90;;;;;;5097995;28;20074;-73
2023/04/18 06:59:42;;;;;;;1999.90;999.90;;;8.30;99.90;;;;;;5097662;28;20045;-73
2023/04/18 07:02:08;;;;;;;1999.90;999.90;;;8.30;99.90;;;;;;5095958;28;20040;-73
2023/04/18 07:04:33;;;;;;;1999.90;999.90;;;8.40;99.90;;;;;;5095258;28;20064;-73
2023/04/18 07:07:00;;;;;;;1999.90;999.90;;;8.50;99.90;;;;;;5097489;28;20540;-73
2023/04/18 07:09:26;;;;;;;1999.90;999.90;;;8.60;99.90;;;;;;5097082;28;20115;-73
2023/04/18 07:11:51;;;;;;;1999.90;999.90;;;8.70;99.90;;;;;;5097250;28;20146;-73
2023/04/18 07:14:18;;;;;;;1999.90;999.90;;;8.90;99.90;;;;;;5097187;28;20383;-73
2023/04/18 07:16:45;;;;;;;1999.90;999.90;;;9.00;99.90;;;;;;5099322;28;20764;-73
2023/04/18 07:19:11;;;;;;;1999.90;999.90;;;9.10;99.90;;;;;;5096463;28;20086;-73
2023/04/18 07:21:39;;;;;;;1999.90;999.90;;;9.20;99.90;;;;;;5097666;28;20520;-73
2023/04/18 07:24:05;;;;;;;1999.90;999.90;;;9.20;99.90;;;;;;5096955;28;20032;-73
2023/04/18 07:26:31;;;;;;;1999.90;999.90;;;9.30;99.90;;;;;;5098623;28;20032;-73
2023/04/18 07:28:57;;;;;;;1999.90;999.90;;;9.40;99.90;;;;;;5096095;28;20033;-73
2023/04/18 07:31:30;;;;;;;1999.90;999.90;;;9.60;99.90;;;;;;5097437;28;20071;-73
2023/04/18 07:33:56;;;;;;;1999.90;999.90;;;9.70;99.90;;;;;;5097568;28;20032;-73
2023/04/18 07:36:22;;;;;;;1999.90;999.90;;;9.80;99.90;;;;;;5099188;28;20527;-73
2023/04/18 07:38:47;;;;;;;1999.90;999.90;;;9.80;99.90;;;;;;5098512;28;20063;-73
2023/04/18 07:41:14;;;;;;;1999.90;999.90;;;10.00;99.90;;;;;;5098443;28;20440;-74
2023/04/18 07:43:39;;;;;;;1999.90;999.90;;;10.00;99.90;;;;;;5097693;28;20067;-73
2023/04/18 07:46:06;;;;;;;1999.90;999.90;;;10.30;99.90;;;;;;5096489;28;20498;-73
2023/04/18 07:48:34;;;;;;;1999.90;999.90;;;10.60;99.90;;;;;;5097616;28;20028;-73
2023/04/18 07:51:00;;;;;;;1999.90;999.90;;;10.80;99.90;;;;;;5097131;28;20037;-73
2023/04/18 07:53:25;;;;;;;1999.90;999.90;;;11.00;99.90;;;;;;5097184;28;20438;-74
2023/04/18 07:55:53;;;;;;;1999.90;999.90;;;11.40;99.90;;;;;;5094655;28;20118;-73
2023/04/18 07:58:18;;;;;;;1999.90;999.90;;;11.30;99.90;;;;;;5096762;28;20445;-73
2023/04/18 08:00:44;;;;;;;1999.90;999.90;;;11.10;99.90;;;;;;5095192;28;20040;-73
2023/04/18 08:03:10;;;;;;;1999.90;999.90;;;11.10;99.90;;;;;;5095333;28;20393;-74
2023/04/18 08:05:37;;;;;;;1999.90;999.90;;;11.10;99.90;;;;;;5095567;28;20036;-73
2023/04/18 08:08:05;;;;;;;1999.90;999.90;;;11.10;99.90;;;;;;5096277;28;20460;-73
2023/04/18 08:10:30;;;;;;;1999.90;999.90;;;11.20;99.90;;;;;;5096413;28;20106;-73
2023/04/18 08:12:56;;;;;;;1999.90;999.90;;;10.90;99.90;;;;;;5096542;28;20486;-74
2023/04/18 08:15:21;;;;;;;1999.90;999.90;;;10.80;99.90;;;;;;5096229;28;20047;-73
2023/04/18 08:17:47;;;;;;;1999.90;999.90;;;10.60;99.90;;;;;;5096572;28;20029;-73
2023/04/18 08:20:14;;;;;;;1999.90;999.90;;;10.50;99.90;;;;;;5096351;28;20028;-73
2023/04/18 08:22:40;;;;;;;1999.90;999.90;;;10.50;99.90;;;;;;5095004;28;20039;-73
2023/04/18 08:25:06;;;;;;;1999.90;999.90;;;10.60;99.90;;;;;;5095647;28;20041;-73
2023/04/18 08:27:31;;;;;;;1999.90;999.90;;;10.80;99.90;;;;;;5101776;28;20466;-74
2023/04/18 08:29:57;;;;;;;1999.90;999.90;;;10.80;99.90;;;;;;5104638;28;20043;-74
2023/04/18 08:32:23;;;;;;;1999.90;999.90;;;10.90;99.90;;;;;;5107934;28;20512;-79
2023/04/18 08:34:48;;;;;;;1999.90;999.90;;;10.90;99.90;;;;;;5111700;28;20037;-75
2023/04/18 08:37:14;;;;;;;1999.90;999.90;;;11.10;99.90;;;;;;5115076;28;20111;-74
2023/04/18 08:39:39;;;;;;;1999.90;999.90;;;11.20;99.90;;;;;;5113663;28;20085;-75
2023/04/18 08:42:06;;;;;;;1999.90;999.90;;;11.60;99.90;;;;;;5104348;28;20409;-75
2023/04/18 08:44:52;;;;;;;1999.90;999.90;;;11.90;99.90;;;;;;5085853;28;20853;-75
2023/04/18 08:47:19;;;;;;;1999.90;999.90;;;12.00;99.90;;;;;;5104262;28;20032;-75
2023/04/18 08:49:45;;;;;;;1999.90;999.90;;;12.20;99.90;;;;;;5116426;28;20039;-75
2023/04/18 08:52:13;;;;;;;1999.90;999.90;;;12.20;99.90;;;;;;5107399;28;20032;-76
2023/04/18 08:54:44;;;;;;;1999.90;999.90;;;12.40;99.90;;;;;;5085465;28;20032;-75
2023/04/18 08:57:15;;;;;;;1999.90;999.90;;;12.50;99.90;;;;;;5101955;27;20092;-75
2023/04/18 08:59:44;;;;;;;1999.90;999.90;;;12.50;99.90;;;;;;5104357;28;20572;-75
2023/04/18 09:04:58;;;;;;;1999.90;999.90;;;12.30;99.90;;;;;;5083945;28;20766;-75
2023/04/18 09:07:28;;;;;;;1999.90;999.90;;;12.20;99.90;;;;;;5085548;28;20537;-74
2023/04/18 09:09:56;;;;;;;1999.90;999.90;;;12.30;99.90;;;;;;5107172;28;20037;-75
2023/04/18 09:12:26;;;;;;;1999.90;999.90;;;12.10;99.90;;;;;;5109783;28;20036;-75
2023/04/18 09:15:08;;;;;;;1999.90;999.90;;;12.10;99.90;;;;;;5111702;28;20056;-75
2023/04/18 09:17:42;;;;;;;1999.90;999.90;;;12.00;99.90;;;;;;5098745;28;20059;-76
2023/04/18 09:20:10;;;;;;;1999.90;999.90;;;12.20;99.90;;;;;;5104397;28;20908;-75
2023/04/18 09:22:47;;;;;;;1999.90;999.90;;;12.40;99.90;;;;;;5095560;28;20557;-75
2023/04/18 09:25:33;;;;;;;1999.90;999.90;;;12.80;99.90;;;;;;5075971;28;20052;-76
2023/04/18 09:28:00;;;;;;;1999.90;999.90;;;13.40;99.90;;;;;;5094999;28;20029;-75
2023/04/18 09:30:31;;;;;;;1999.90;999.90;;;13.80;99.90;;;;;;5095395;28;20037;-76
2023/04/18 09:32:59;;;;;;;1999.90;999.90;;;13.80;99.90;;;;;;5095043;28;20032;-75
2023/04/18 09:35:25;;;;;;;1999.90;999.90;;;14.00;99.90;;;;;;5094685;28;20072;-75
2023/04/18 09:37:51;;;;;;;1999.90;999.90;;;14.20;99.90;;;;;;5076846;28;20086;-75
2023/04/18 09:40:18;;;;;;;1999.90;999.90;;;14.40;99.90;;;;;;5101913;28;20507;-80
2023/04/18 09:42:44;;;;;;;1999.90;999.90;;;14.50;99.90;;;;;;5111737;28;20080;-76
2023/04/18 09:45:11;;;;;;;1999.90;999.90;;;14.20;99.90;;;;;;5092697;28;20055;-76
2023/04/18 09:47:38;;;;;;;1999.90;999.90;;;14.10;99.90;;;;;;5094980;28;20021;-75
2023/04/18 09:50:05;;;;;;;1999.90;999.90;;;14.20;99.90;;;;;;5074816;28;20033;-75
2023/04/18 09:52:38;;;;;;;1999.90;999.90;;;14.30;99.90;;;;;;5094491;28;20166;-75
2023/04/18 09:55:09;;;;;;;1999.90;999.90;;;14.80;99.90;;;;;;5094209;28;20090;-76
2023/04/18 09:57:39;;;;;;;1999.90;999.90;;;14.80;99.90;;;;;;5095007;28;20036;-75
2023/04/18 10:00:19;;;;;;;1999.90;999.90;;;14.90;99.90;;;;;;5076296;28;20067;-75
2023/04/18 10:03:09;;;;;;;1999.90;999.90;;;14.10;99.90;;;;;;5095449;28;20052;-75
2023/04/18 10:05:37;;;;;;;1999.90;999.90;;;14.20;99.90;;;;;;5094663;28;20098;-75
2023/04/18 10:08:03;;;;;;;1999.90;999.90;;;14.40;99.90;;;;;;5094536;28;20079;-76
2023/04/18 10:10:29;;;;;;;1999.90;999.90;;;14.90;99.90;;;;;;5097333;28;20386;-75
2023/04/18 10:12:56;;;;;;;1999.90;999.90;;;15.10;99.90;;;;;;5098242;28;20039;-76
2023/04/18 10:15:25;;;;;;;1999.90;999.90;;;15.40;99.90;;;;;;5110163;28;20521;-76
2023/04/18 10:17:57;;;;;;;1999.90;999.90;;;15.60;99.90;;;;;;5115140;28;20039;-76
2023/04/18 10:20:25;;;;;;;1999.90;999.90;;;15.60;99.90;;;;;;5097857;28;20409;-76
2023/04/18 10:22:52;;;;;;;1999.90;999.90;;;15.80;99.90;;;;;;5098028;28;20540;-76
2023/04/18 10:25:32;;;;;;;1999.90;999.90;;;15.80;99.90;;;;;;5097459;28;20040;-76
2023/04/18 10:28:00;;;;;;;1999.90;999.90;;;16.20;99.90;;;;;;5098293;28;20028;-76
2023/04/18 10:30:40;;;;;;;1999.90;999.90;;;16.40;99.90;;;;;;5097926;28;20032;-76
2023/04/18 10:33:24;;;;;;;1999.90;999.90;;;16.30;99.90;;;;;;5097646;28;20025;-75
2023/04/18 10:36:19;;;;;;;1999.90;999.90;;;15.80;99.90;;;;;;5078465;28;20039;-76
2023/04/18 10:38:48;;;;;;;1999.90;999.90;;;15.90;99.90;;;;;;5098006;28;20024;-75
2023/04/18 10:41:21;;;;;;;1999.90;999.90;;;15.70;99.90;;;;;;5097804;28;20063;-76
2023/04/18 10:44:21;;;;;;;1999.90;999.90;;;15.80;99.90;;;;;;5078873;28;20040;-76
2023/04/18 10:46:52;;;;;;;1999.90;999.90;;;15.70;99.90;;;;;;5085862;28;20047;-76
2023/04/18 10:49:18;;;;;;;1999.90;999.90;;;16.10;99.90;;;;;;5097169;28;20464;-76
2023/04/18 10:51:49;;;;;;;1999.90;999.90;;;16.20;99.90;;;;;;5097641;28;20037;-76
2023/04/18 10:54:36;;;;;;;1999.90;999.90;;;15.60;99.90;;;;;;5096854;28;20413;-76
2023/04/18 10:57:03;;;;;;;1999.90;999.90;;;15.50;99.90;;;;;;5097371;28;20028;-76
2023/04/18 10:59:30;;;;;;;1999.90;999.90;;;15.30;99.90;;;;;;5085307;28;20171;-76
2023/04/18 11:02:06;;;;;;;1999.90;999.90;;;14.70;99.90;;;;;;5111368;28;20043;-78
2023/04/18 11:04:32;;;;;;;1999.90;999.90;;;14.60;99.90;;;;;;5105836;28;20037;-76
2023/04/18 11:06:57;;;;;;;1999.90;999.90;;;14.50;99.90;;;;;;5092150;28;20371;-76
2023/04/18 11:09:24;;;;;;;1999.90;999.90;;;14.30;99.90;;;;;;5108557;28;20142;-77
2023/04/18 11:12:03;;;;;;;1999.90;999.90;;;14.20;99.90;;;;;;5117855;28;20058;-76
2023/04/18 11:14:45;;;;;;;1999.90;999.90;;;14.20;99.90;;;;;;5102799;28;20041;-77
2023/04/18 11:17:23;;;;;;;1999.90;999.90;;;14.40;99.90;;;;;;5115917;28;20465;-78
2023/04/18 11:19:50;;;;;;;1999.90;999.90;;;14.70;99.90;;;;;;5099338;28;20036;-77
2023/04/18 11:22:16;;;;;;;1999.90;999.90;;;14.80;99.90;;;;;;5100814;28;20525;-78
2023/04/18 11:24:43;;;;;;;1999.90;999.90;;;14.80;99.90;;;;;;5110878;28;20052;-77
2023/04/18 11:27:10;;;;;;;1999.90;999.90;;;14.20;99.90;;;;;;5120519;28;20051;-78
2023/04/18 11:29:35;;;;;;;1999.90;999.90;;;14.30;99.90;;;;;;5120453;28;20032;-76
2023/04/18 11:32:01;;;;;;;1999.90;999.90;;;14.20;99.90;;;;;;5084744;28;20098;-77
2023/04/18 11:34:30;;;;;;;1999.90;999.90;;;14.30;99.90;;;;;;5078796;28;20037;-76
2023/04/18 11:36:56;;;;;;;1999.90;999.90;;;14.40;99.90;;;;;;5098976;28;20028;-77
2023/04/18 11:39:21;;;;;;;1999.90;999.90;;;14.40;99.90;;;;;;5079592;28;20464;-77
2023/04/18 11:41:50;;;;;;;1999.90;999.90;;;14.50;99.90;;;;;;5098966;28;20090;-77
2023/04/18 11:44:17;;;;;;;1999.90;999.90;;;14.60;99.90;;;;;;5080317;28;20422;-77
2023/04/18 11:46:46;;;;;;;1999.90;999.90;;;14.90;99.90;;;;;;5098839;28;20040;-78
2023/04/18 11:49:29;;;;;;;1999.90;999.90;;;14.90;99.90;;;;;;5080394;28;20024;-77
2023/04/18 11:51:55;;;;;;;1999.90;999.90;;;15.00;99.90;;;;;;5098919;28;20028;-78
2023/04/18 11:54:41;;;;;;;1999.90;999.90;;;15.00;99.90;;;;;;5098382;28;20060;-77
2023/04/18 11:57:25;;;;;;;1999.90;999.90;;;15.20;99.90;;;;;;5080430;28;20036;-76
2023/04/18 12:00:00;;;;;;;1999.90;999.90;;;15.70;99.90;;;;;;5098867;28;20785;-78
2023/04/18 12:02:37;;;;;;;1999.90;999.90;;;15.90;99.90;;;;;;5099386;28;20024;-78
2023/04/18 12:05:04;;;;;;;1999.90;999.90;;;16.10;99.90;;;;;;5098087;28;20044;-78
2023/04/18 12:07:33;;;;;;;1999.90;999.90;;;16.30;99.90;;;;;;5081102;28;20021;-76
2023/04/18 12:09:59;;;;;;;1999.90;999.90;;;16.40;99.90;;;;;;5080841;28;20032;-78